CheckWX is a tool to help pilots better visualize weather data.  It is not intended as a substitute for an official pre-flight weather briefing.

18:42:26 UTC

CZFA METAR
Faro Airport
Faro, Canada
Current

42 mins ago

CZFA 101800Z CCA 08003KT 020V150 30SM SCT060CB BKN084 BKN210 17/08 A2975 RMK CB4AC1CI2 AC TR TCU EMBD VIRGA SLP087 DENSITY ALT 3300FT
Observed
Jul-10 @ 18:00 UTC
Wind
  • 080° at 3 KTS
Visibility
30 SM
Flight Rules
VFR
Cloud Levels
  • Scattered at 6,000' AGL
  • Broken at 8,400' AGL
  • Broken at 21,000' AGL
Temperature
17°C / 63°F
Dewpoint
C / 46°F
Humidity
56%
Altimeter
29.75" Hg
Pressure
1007.42 hPa
Previous

2 hours ago

CZFA 101700Z 09004KT 030V140 30SM FEW060CB SCT082 15/08 A2976 RMK CB2AC2 TCU ASOCTD VIRGA SW SLP090 DENSITY ALT 3100FT
Observed
Jul-10 @ 17:00 UTC
Wind
  • 090° at 4 KTS
Visibility
30 SM
Flight Rules
VFR
Cloud Levels
  • Few at 6,000' AGL
  • Scattered at 8,200' AGL
Temperature
15°C / 59°F
Dewpoint
C / 46°F
Humidity
63%
Altimeter
29.76" Hg
Pressure
1007.82 hPa
Previous

3 hours ago

CZFA 101600Z 09005KT 030V160 30SM FEW059TCU FEW080 13/08 A2977 RMK TCU1AC2 TCU TR SLP093 DENSITY ALT 2900FT
Observed
Jul-10 @ 16:00 UTC
Wind
  • 090° at 5 KTS
Visibility
30 SM
Flight Rules
VFR
Cloud Levels
  • Few at 5,900' AGL
  • Few at 8,000' AGL
Temperature
13°C / 55°F
Dewpoint
C / 46°F
Humidity
72%
Altimeter
29.77" Hg
Pressure
1008.12 hPa